LIFTR1 EGVO-EGVO

Flight info

Callsign LIFTR1
Flight time 0h 11m
Altitude 1000
Route OPR LFA1B D125 LFA1C
Aircraft H47/L-VGDW/C

Departure

Time 2026-05-05 17:38
Airport RAF Odiham (EGVO)

Arrival

Time 2026-05-05 17:50
Airport RAF Odiham (EGVO)
Time Latitude Longitude Altitude Speed Heading
2026-05-05 16:44 51.23761 -0.93811 341 ft 0 kts 266°
2026-05-05 16:49 51.23761 -0.93810 341 ft 0 kts 266°
2026-05-05 16:57 51.23761 -0.93811 341 ft 0 kts 267°
2026-05-05 16:57 51.23758 -0.93847 341 ft 5 kts 233°
2026-05-05 16:57 51.23727 -0.93833 336 ft 7 kts 130°
2026-05-05 16:57 51.23695 -0.93775 341 ft 7 kts 131°
2026-05-05 16:58 51.23653 -0.93743 341 ft 7 kts 167°
2026-05-05 16:58 51.23612 -0.93757 341 ft 7 kts 242°
2026-05-05 16:58 51.23604 -0.93783 340 ft 0 kts 243°
2026-05-05 16:58 51.23603 -0.93785 351 ft 1 kts 245°
2026-05-05 16:59 51.23601 -0.93793 362 ft 3 kts 236°
2026-05-05 16:59 51.23522 -0.93831 367 ft 17 kts 180°
2026-05-05 16:59 51.23414 -0.93844 360 ft 15 kts 232°
2026-05-05 16:59 51.23410 -0.94036 374 ft 52 kts 286°
2026-05-05 17:00 51.23432 -0.94847 611 ft 95 kts 283°
2026-05-05 17:00 51.23491 -0.96043 619 ft 116 kts 281°
2026-05-05 17:00 51.23757 -0.97236 657 ft 116 kts 305°
2026-05-05 17:00 51.24187 -0.98376 667 ft 124 kts 309°
2026-05-05 17:01 51.24673 -0.99522 668 ft 126 kts 309°
2026-05-05 17:01 51.25015 -1.00824 670 ft 129 kts 292°
2026-05-05 17:01 51.25122 -1.02266 671 ft 130 kts 282°
2026-05-05 17:01 51.25201 -1.03684 672 ft 127 kts 282°
2026-05-05 17:02 51.25306 -1.05105 668 ft 130 kts 283°
2026-05-05 17:02 51.25347 -1.06554 664 ft 134 kts 270°
2026-05-05 17:02 51.24973 -1.07951 671 ft 141 kts 243°
2026-05-05 17:02 51.24423 -1.09205 669 ft 137 kts 239°
2026-05-05 17:03 51.23858 -1.10418 668 ft 137 kts 239°
2026-05-05 17:03 51.23361 -1.11469 672 ft 135 kts 239°
2026-05-05 17:03 51.22811 -1.12603 834 ft 126 kts 238°
2026-05-05 17:04 51.22351 -1.13676 919 ft 132 kts 244°
2026-05-05 17:04 51.21951 -1.15041 922 ft 135 kts 254°
2026-05-05 17:04 51.21629 -1.16435 919 ft 136 kts 256°
2026-05-05 17:04 51.21553 -1.17930 917 ft 137 kts 282°
2026-05-05 17:05 51.21713 -1.19393 922 ft 131 kts 286°
2026-05-05 17:05 51.21866 -1.20802 917 ft 128 kts 287°
2026-05-05 17:05 51.22069 -1.22173 919 ft 126 kts 291°
2026-05-05 17:05 51.22336 -1.23489 923 ft 124 kts 296°
2026-05-05 17:06 51.22670 -1.24768 921 ft 127 kts 300°
2026-05-05 17:06 51.23089 -1.26016 922 ft 128 kts 305°
2026-05-05 17:06 51.23558 -1.27239 920 ft 130 kts 307°
2026-05-05 17:06 51.24033 -1.28459 921 ft 129 kts 307°
2026-05-05 17:07 51.24236 -1.29903 914 ft 144 kts 272°
2026-05-05 17:07 51.24030 -1.31416 924 ft 138 kts 262°
2026-05-05 17:07 51.23834 -1.32917 918 ft 138 kts 267°
2026-05-05 17:07 51.23874 -1.34441 924 ft 137 kts 281°
2026-05-05 17:08 51.23962 -1.35954 920 ft 137 kts 282°
2026-05-05 17:08 51.24012 -1.37469 919 ft 139 kts 273°
2026-05-05 17:08 51.23731 -1.38975 925 ft 143 kts 253°
2026-05-05 17:08 51.23351 -1.40410 921 ft 140 kts 252°
2026-05-05 17:09 51.22961 -1.41829 924 ft 139 kts 251°
2026-05-05 17:09 51.22606 -1.43278 920 ft 140 kts 254°
2026-05-05 17:09 51.22267 -1.44721 919 ft 138 kts 256°
2026-05-05 17:09 51.22124 -1.46195 918 ft 134 kts 275°
2026-05-05 17:10 51.22179 -1.47674 922 ft 132 kts 280°
2026-05-05 17:10 51.22261 -1.49119 919 ft 131 kts 282°
2026-05-05 17:10 51.22385 -1.50564 917 ft 132 kts 284°
2026-05-05 17:10 51.22541 -1.51985 916 ft 130 kts 287°
2026-05-05 17:11 51.22754 -1.53400 910 ft 136 kts 291°
2026-05-05 17:11 51.23014 -1.54899 916 ft 142 kts 291°
2026-05-05 17:11 51.23210 -1.56454 918 ft 144 kts 282°
2026-05-05 17:11 51.23221 -1.58053 922 ft 144 kts 277°
2026-05-05 17:12 51.23321 -1.59632 915 ft 144 kts 284°
2026-05-05 17:12 51.23443 -1.61219 917 ft 145 kts 282°
2026-05-05 17:12 51.23538 -1.62813 922 ft 144 kts 282°
2026-05-05 17:12 51.23605 -1.64405 921 ft 144 kts 278°
2026-05-05 17:13 51.23596 -1.66028 945 ft 149 kts 273°
2026-05-05 17:13 51.23584 -1.67667 922 ft 147 kts 277°
2026-05-05 17:13 51.24035 -1.69049 621 ft 146 kts 323°
2026-05-05 17:13 51.24820 -1.70100 617 ft 145 kts 315°
2026-05-05 17:14 51.24904 -1.71590 564 ft 142 kts 262°
2026-05-05 17:14 51.24280 -1.72769 457 ft 146 kts 222°
2026-05-05 17:14 51.23425 -1.73701 523 ft 150 kts 218°
2026-05-05 17:14 51.22806 -1.74995 421 ft 149 kts 261°
2026-05-05 17:15 51.22617 -1.76618 387 ft 147 kts 225°
2026-05-05 17:15 51.21969 -1.76128 502 ft 116 kts 73°
2026-05-05 17:15 51.22255 -1.74833 491 ft 130 kts 69°
2026-05-05 17:15 51.22674 -1.74555 429 ft 90 kts 285°
2026-05-05 17:16 51.22747 -1.75419 335 ft 61 kts 250°
2026-05-05 17:16 51.22696 -1.75911 322 ft 46 kts 252°
2026-05-05 17:16 51.22638 -1.76139 308 ft 7 kts 200°
2026-05-05 17:16 51.22628 -1.76151 298 ft 1 kts 71°
2026-05-05 17:17 51.22636 -1.76124 313 ft 3 kts 133°
2026-05-05 17:17 51.22775 -1.76287 368 ft 83 kts 313°
2026-05-05 17:17 51.23165 -1.77335 383 ft 131 kts 265°
2026-05-05 17:17 51.22900 -1.78852 447 ft 144 kts 271°
2026-05-05 17:18 51.23219 -1.80271 520 ft 143 kts 303°
2026-05-05 17:18 51.23691 -1.81691 469 ft 142 kts 301°
2026-05-05 17:18 51.23786 -1.83174 492 ft 134 kts 233°
2026-05-05 17:18 51.23043 -1.84113 653 ft 141 kts 222°
2026-05-05 17:19 51.22499 -1.85320 767 ft 134 kts 257°
2026-05-05 17:19 51.22693 -1.86482 781 ft 83 kts 11°
2026-05-05 17:19 51.22872 -1.85939 802 ft 66 kts 117°
2026-05-05 17:19 51.22497 -1.85474 820 ft 83 kts 208°
2026-05-05 17:20 51.22326 -1.86106 757 ft 64 kts 327°
2026-05-05 17:20 51.22593 -1.86114 676 ft 27 kts 104°
2026-05-05 17:20 51.22556 -1.85881 555 ft 7 kts 99°
2026-05-05 17:20 51.22542 -1.85834 427 ft 1 kts 118°
2026-05-05 17:21 51.22544 -1.85832 394 ft 1 kts 127°
2026-05-05 17:21 51.22544 -1.85833 391 ft 0 kts 125°
2026-05-05 17:21 51.22545 -1.85833 414 ft 1 kts 131°
2026-05-05 17:22 51.21982 -1.86501 548 ft 135 kts 276°
2026-05-05 17:22 51.22373 -1.87891 514 ft 145 kts 306°
2026-05-05 17:22 51.22943 -1.89212 615 ft 145 kts 309°
2026-05-05 17:22 51.23068 -1.90809 644 ft 152 kts 269°
2026-05-05 17:23 51.22999 -1.92502 727 ft 152 kts 275°
2026-05-05 17:23 51.23001 -1.94188 758 ft 154 kts 276°
2026-05-05 17:23 51.22673 -1.95851 792 ft 163 kts 252°
2026-05-05 17:23 51.22152 -1.97458 806 ft 162 kts 246°
2026-05-05 17:24 51.21658 -1.99040 715 ft 155 kts 258°
2026-05-05 17:24 51.21823 -2.00657 492 ft 149 kts 301°
2026-05-05 17:24 51.22495 -2.01812 477 ft 144 kts 320°
2026-05-05 17:24 51.22910 -2.03165 689 ft 147 kts 255°
2026-05-05 17:25 51.22288 -2.04466 529 ft 141 kts 245°
2026-05-05 17:25 51.22076 -2.05269 547 ft 95 kts 271°
2026-05-05 17:25 51.22122 -2.05722 492 ft 3 kts 307°
2026-05-05 17:25 51.22019 -2.05476 603 ft 92 kts 132°
2026-05-05 17:26 51.21311 -2.04935 565 ft 132 kts 223°
2026-05-05 17:26 51.21592 -2.06022 693 ft 133 kts 324°
2026-05-05 17:26 51.22180 -2.07252 665 ft 143 kts 304°
2026-05-05 17:26 51.22716 -2.08558 720 ft 138 kts 321°
2026-05-05 17:27 51.23592 -2.08784 583 ft 130 kts 52°
2026-05-05 17:27 51.23639 -2.07253 594 ft 151 kts 93°
2026-05-05 17:27 51.23013 -2.05987 618 ft 141 kts 156°
2026-05-05 17:27 51.22483 -2.05620 570 ft 23 kts 140°
2026-05-05 17:28 51.22430 -2.05565 566 ft 0 kts 148°
2026-05-05 17:28 51.22428 -2.05569 569 ft 0 kts 141°
2026-05-05 17:28 51.22423 -2.05570 568 ft 0 kts 141°
2026-05-05 17:28 51.22407 -2.05555 625 ft 19 kts 146°
2026-05-05 17:29 51.22155 -2.04788 701 ft 130 kts 114°
2026-05-05 17:29 51.21570 -2.03441 761 ft 157 kts 128°
2026-05-05 17:29 51.20974 -2.02002 789 ft 153 kts 115°
2026-05-05 17:29 51.20712 -2.00394 827 ft 148 kts 99°
2026-05-05 17:30 51.20669 -1.99318 846 ft 141 kts 85°
2026-05-05 17:30 51.20896 -1.97855 899 ft 133 kts 68°
2026-05-05 17:30 51.21121 -1.96439 1084 ft 131 kts 77°
2026-05-05 17:30 51.21206 -1.94978 1192 ft 138 kts 93°
2026-05-05 17:31 51.20951 -1.93476 1167 ft 145 kts 107°
2026-05-05 17:31 51.20595 -1.91996 1173 ft 141 kts 109°
2026-05-05 17:31 51.20206 -1.90549 1171 ft 144 kts 112°
2026-05-05 17:31 51.19756 -1.89104 1172 ft 146 kts 114°
2026-05-05 17:32 51.19321 -1.87637 1172 ft 147 kts 113°
2026-05-05 17:32 51.18843 -1.86197 1175 ft 146 kts 117°
2026-05-05 17:32 51.18331 -1.84802 1174 ft 146 kts 118°
2026-05-05 17:32 51.17991 -1.83283 1167 ft 149 kts 95°
2026-05-05 17:33 51.18043 -1.81684 1174 ft 142 kts 84°
2026-05-05 17:33 51.18098 -1.80116 1174 ft 141 kts 84°
2026-05-05 17:33 51.18152 -1.78549 1171 ft 142 kts 85°
2026-05-05 17:33 51.18126 -1.76977 1173 ft 143 kts 91°
2026-05-05 17:34 51.17952 -1.75419 1175 ft 142 kts 100°
2026-05-05 17:34 51.17700 -1.73890 1172 ft 144 kts 103°
2026-05-05 17:34 51.17411 -1.72354 1170 ft 146 kts 106°
2026-05-05 17:34 51.17071 -1.70832 1139 ft 144 kts 108°
2026-05-05 17:35 51.16719 -1.69297 1145 ft 147 kts 108°
2026-05-05 17:35 51.16358 -1.67770 1145 ft 147 kts 109°
2026-05-05 17:35 51.15982 -1.66262 1145 ft 146 kts 110°
2026-05-05 17:35 51.15592 -1.64771 1119 ft 148 kts 111°
2026-05-05 17:36 51.15226 -1.63247 1115 ft 148 kts 107°
2026-05-05 17:36 51.14984 -1.61679 1115 ft 144 kts 100°
2026-05-05 17:36 51.14808 -1.60115 1116 ft 144 kts 98°
2026-05-05 17:36 51.14606 -1.58538 1118 ft 143 kts 101°
2026-05-05 17:37 51.14379 -1.57015 1110 ft 145 kts 102°
2026-05-05 17:37 51.14137 -1.55439 1119 ft 144 kts 102°
2026-05-05 17:37 51.13884 -1.53890 1119 ft 144 kts 104°
2026-05-05 17:37 51.13588 -1.52368 1114 ft 144 kts 106°
2026-05-05 17:38 51.13263 -1.50864 1122 ft 144 kts 108°
2026-05-05 17:38 51.12899 -1.49369 1117 ft 146 kts 111°
2026-05-05 17:38 51.12521 -1.47877 1116 ft 146 kts 111°
2026-05-05 17:38 51.12146 -1.46377 1113 ft 146 kts 109°
2026-05-05 17:39 51.11781 -1.44869 1116 ft 146 kts 110°
2026-05-05 17:39 51.11398 -1.43385 1116 ft 144 kts 109°
2026-05-05 17:39 51.11171 -1.41867 1119 ft 142 kts 97°
2026-05-05 17:39 51.11096 -1.40304 1119 ft 141 kts 91°
2026-05-05 17:40 51.11014 -1.38742 1119 ft 141 kts 93°
2026-05-05 17:40 51.10914 -1.37219 1117 ft 142 kts 94°
2026-05-05 17:40 51.10903 -1.35659 1118 ft 141 kts 83°
2026-05-05 17:40 51.11142 -1.34177 1111 ft 139 kts 69°
2026-05-05 17:41 51.11476 -1.32763 1116 ft 135 kts 69°
2026-05-05 17:41 51.11805 -1.31332 1106 ft 137 kts 68°
2026-05-05 17:41 51.12133 -1.29930 1119 ft 137 kts 68°
2026-05-05 17:41 51.12487 -1.28505 1115 ft 135 kts 66°
2026-05-05 17:42 51.12867 -1.27126 1119 ft 136 kts 63°
2026-05-05 17:42 51.13393 -1.25887 1111 ft 139 kts 50°
2026-05-05 17:42 51.14182 -1.24972 1123 ft 137 kts 31°
2026-05-05 17:42 51.15013 -1.24246 1114 ft 135 kts 29°
2026-05-05 17:43 51.15845 -1.23553 1114 ft 136 kts 28°
2026-05-05 17:43 51.16679 -1.22879 1117 ft 134 kts 27°
2026-05-05 17:43 51.17501 -1.22165 1117 ft 134 kts 31°
2026-05-05 17:43 51.18293 -1.21374 1115 ft 135 kts 33°
2026-05-05 17:44 51.19072 -1.20547 1117 ft 134 kts 38°
2026-05-05 17:44 51.19747 -1.19522 1118 ft 134 kts 44°
2026-05-05 17:44 51.20397 -1.18453 1122 ft 133 kts 45°
2026-05-05 17:44 51.21012 -1.17322 1114 ft 136 kts 50°
2026-05-05 17:45 51.21510 -1.16029 1113 ft 139 kts 61°
2026-05-05 17:45 51.21925 -1.14640 1115 ft 139 kts 63°
2026-05-05 17:45 51.22387 -1.13282 1116 ft 139 kts 58°
2026-05-05 17:45 51.22937 -1.12031 1122 ft 138 kts 53°
2026-05-05 17:46 51.23484 -1.10758 1121 ft 139 kts 53°
2026-05-05 17:46 51.24039 -1.09499 1118 ft 139 kts 53°
2026-05-05 17:46 51.24632 -1.08276 1119 ft 139 kts 50°
2026-05-05 17:46 51.25248 -1.07094 1118 ft 138 kts 50°
2026-05-05 17:47 51.25745 -1.05792 1121 ft 138 kts 64°
2026-05-05 17:47 51.26079 -1.04322 1078 ft 142 kts 69°
2026-05-05 17:47 51.26356 -1.02821 1034 ft 142 kts 72°
2026-05-05 17:47 51.26605 -1.01299 1006 ft 140 kts 75°
2026-05-05 17:48 51.26740 -0.99770 1080 ft 138 kts 83°
2026-05-05 17:48 51.26787 -0.98265 1042 ft 135 kts 82°
2026-05-05 17:48 51.26955 -0.96782 995 ft 139 kts 77°
2026-05-05 17:48 51.26896 -0.95312 1039 ft 126 kts 115°
2026-05-05 17:49 51.26484 -0.94026 1099 ft 135 kts 124°
2026-05-05 17:49 51.25935 -0.92791 878 ft 138 kts 149°
2026-05-05 17:49 51.25053 -0.92772 747 ft 129 kts 223°
2026-05-05 17:49 51.24446 -0.93612 633 ft 99 kts 224°
2026-05-05 17:50 51.24001 -0.94233 471 ft 69 kts 223°
2026-05-05 17:50 51.23693 -0.94586 404 ft 42 kts 209°
2026-05-05 17:50 51.23535 -0.94425 407 ft 30 kts 75°
2026-05-05 17:50 51.23564 -0.94013 407 ft 33 kts 68°
2026-05-05 17:51 51.23595 -0.93806 364 ft 5 kts 56°
2026-05-05 17:51 51.23600 -0.93783 371 ft 4 kts 245°
2026-05-05 17:51 51.23602 -0.93790 359 ft 3 kts 61°
2026-05-05 17:51 51.23603 -0.93781 350 ft 0 kts 58°
2026-05-05 17:52 51.23603 -0.93780 337 ft 0 kts 59°
2026-05-05 17:52 51.23611 -0.93758 338 ft 6 kts 59°
2026-05-05 17:52 51.23658 -0.93745 338 ft 8 kts 348°
2026-05-05 17:53 51.23726 -0.93756 341 ft 9 kts 356°
2026-05-05 17:53 51.23762 -0.93769 337 ft 6 kts 275°
2026-05-05 17:53 51.23760 -0.93810 341 ft 0 kts 265°